sensor_id;sensor_type;location;lat;lon;timestamp;temperature;humidity
46508;DHT22;32223;53.654;10.014;2023-10-31T00:01:47;11.10;99.90
46508;DHT22;32223;53.654;10.014;2023-10-31T00:04:14;11.20;99.90
46508;DHT22;32223;53.654;10.014;2023-10-31T00:06:40;11.10;99.90
46508;DHT22;32223;53.654;10.014;2023-10-31T00:09:06;11.10;99.90
46508;DHT22;32223;53.654;10.014;2023-10-31T00:11:31;11.20;99.90
46508;DHT22;32223;53.654;10.014;2023-10-31T00:13:57;11.20;99.90
46508;DHT22;32223;53.654;10.014;2023-10-31T00:16:23;11.20;99.90
46508;DHT22;32223;53.654;10.014;2023-10-31T00:18:48;11.20;99.90
46508;DHT22;32223;53.654;10.014;2023-10-31T00:21:14;11.20;99.90
46508;DHT22;32223;53.654;10.014;2023-10-31T00:23:49;11.20;99.90
46508;DHT22;32223;53.654;10.014;2023-10-31T00:26:15;11.20;99.90
46508;DHT22;32223;53.654;10.014;2023-10-31T00:28:41;11.30;99.90
46508;DHT22;32223;53.654;10.014;2023-10-31T00:31:07;11.30;99.90
46508;DHT22;32223;53.654;10.014;2023-10-31T00:33:34;11.30;99.90
46508;DHT22;32223;53.654;10.014;2023-10-31T00:36:00;11.30;99.90
46508;DHT22;32223;53.654;10.014;2023-10-31T00:38:26;11.30;99.90
46508;DHT22;32223;53.654;10.014;2023-10-31T00:40:51;11.40;99.90
46508;DHT22;32223;53.654;10.014;2023-10-31T00:43:17;11.40;99.90
46508;DHT22;32223;53.654;10.014;2023-10-31T00:45:42;11.40;99.90
46508;DHT22;32223;53.654;10.014;2023-10-31T00:48:08;11.40;99.90
46508;DHT22;32223;53.654;10.014;2023-10-31T00:50:34;11.40;99.90
46508;DHT22;32223;53.654;10.014;2023-10-31T00:52:59;11.40;99.90
46508;DHT22;32223;53.654;10.014;2023-10-31T00:55:25;11.40;99.90
46508;DHT22;32223;53.654;10.014;2023-10-31T00:57:51;11.40;99.90
46508;DHT22;32223;53.654;10.014;2023-10-31T01:00:16;11.40;99.90
46508;DHT22;32223;53.654;10.014;2023-10-31T01:02:42;11.40;99.90
46508;DHT22;32223;53.654;10.014;2023-10-31T01:05:08;11.40;99.90
46508;DHT22;32223;53.654;10.014;2023-10-31T01:07:34;11.40;99.90
46508;DHT22;32223;53.654;10.014;2023-10-31T01:10:01;11.50;99.90
46508;DHT22;32223;53.654;10.014;2023-10-31T01:12:26;11.50;99.90
46508;DHT22;32223;53.654;10.014;2023-10-31T01:14:54;11.50;99.90
46508;DHT22;32223;53.654;10.014;2023-10-31T01:17:20;11.50;99.90
46508;DHT22;32223;53.654;10.014;2023-10-31T01:19:46;11.50;99.90
46508;DHT22;32223;53.654;10.014;2023-10-31T01:22:11;11.50;99.90
46508;DHT22;32223;53.654;10.014;2023-10-31T01:24:37;11.40;99.90
46508;DHT22;32223;53.654;10.014;2023-10-31T01:27:03;11.40;99.90
46508;DHT22;32223;53.654;10.014;2023-10-31T01:29:29;11.40;99.90
46508;DHT22;32223;53.654;10.014;2023-10-31T01:31:54;11.50;99.90
46508;DHT22;32223;53.654;10.014;2023-10-31T01:34:20;11.50;99.90
46508;DHT22;32223;53.654;10.014;2023-10-31T01:36:45;11.50;99.90
46508;DHT22;32223;53.654;10.014;2023-10-31T01:39:11;11.50;99.90
46508;DHT22;32223;53.654;10.014;2023-10-31T01:41:37;11.50;99.90
46508;DHT22;32223;53.654;10.014;2023-10-31T01:44:02;11.50;99.90
46508;DHT22;32223;53.654;10.014;2023-10-31T01:46:28;11.50;99.90
46508;DHT22;32223;53.654;10.014;2023-10-31T01:48:53;11.50;99.90
46508;DHT22;32223;53.654;10.014;2023-10-31T01:51:19;11.50;99.90
46508;DHT22;32223;53.654;10.014;2023-10-31T01:53:45;11.60;99.90
46508;DHT22;32223;53.654;10.014;2023-10-31T01:56:11;11.50;99.90
46508;DHT22;32223;53.654;10.014;2023-10-31T01:58:37;11.60;99.90
46508;DHT22;32223;53.654;10.014;2023-10-31T02:01:05;11.60;99.90
46508;DHT22;32223;53.654;10.014;2023-10-31T02:03:31;11.60;99.90
46508;DHT22;32223;53.654;10.014;2023-10-31T02:05:58;11.60;99.90
46508;DHT22;32223;53.654;10.014;2023-10-31T02:08:25;11.60;99.90
46508;DHT22;32223;53.654;10.014;2023-10-31T02:10:51;11.60;99.90
46508;DHT22;32223;53.654;10.014;2023-10-31T02:13:17;11.50;99.90
46508;DHT22;32223;53.654;10.014;2023-10-31T02:15:44;11.60;99.90
46508;DHT22;32223;53.654;10.014;2023-10-31T02:18:10;11.60;99.90
46508;DHT22;32223;53.654;10.014;2023-10-31T02:20:36;11.60;99.90
46508;DHT22;32223;53.654;10.014;2023-10-31T02:23:03;11.60;99.90
46508;DHT22;32223;53.654;10.014;2023-10-31T02:25:29;11.60;99.90
46508;DHT22;32223;53.654;10.014;2023-10-31T02:27:55;11.60;99.90
46508;DHT22;32223;53.654;10.014;2023-10-31T02:30:20;11.60;99.90
46508;DHT22;32223;53.654;10.014;2023-10-31T02:32:46;11.60;99.90
46508;DHT22;32223;53.654;10.014;2023-10-31T02:35:13;11.60;99.90
46508;DHT22;32223;53.654;10.014;2023-10-31T02:37:39;11.60;99.90
46508;DHT22;32223;53.654;10.014;2023-10-31T02:40:05;11.60;99.90
46508;DHT22;32223;53.654;10.014;2023-10-31T02:42:31;11.60;99.90
46508;DHT22;32223;53.654;10.014;2023-10-31T02:44:57;11.60;99.90
46508;DHT22;32223;53.654;10.014;2023-10-31T02:47:23;11.60;99.90
46508;DHT22;32223;53.654;10.014;2023-10-31T02:49:48;11.60;99.90
46508;DHT22;32223;53.654;10.014;2023-10-31T02:52:14;11.60;99.90
46508;DHT22;32223;53.654;10.014;2023-10-31T02:54:39;11.60;99.90
46508;DHT22;32223;53.654;10.014;2023-10-31T02:57:05;11.60;99.90
46508;DHT22;32223;53.654;10.014;2023-10-31T02:59:31;11.60;99.90
46508;DHT22;32223;53.654;10.014;2023-10-31T03:01:57;11.60;99.90
46508;DHT22;32223;53.654;10.014;2023-10-31T03:04:23;11.60;99.90
46508;DHT22;32223;53.654;10.014;2023-10-31T03:06:49;11.60;99.90
46508;DHT22;32223;53.654;10.014;2023-10-31T03:09:15;11.60;99.90
46508;DHT22;32223;53.654;10.014;2023-10-31T03:11:41;11.60;99.90
46508;DHT22;32223;53.654;10.014;2023-10-31T03:14:06;11.60;99.90
46508;DHT22;32223;53.654;10.014;2023-10-31T03:16:32;11.60;99.90
46508;DHT22;32223;53.654;10.014;2023-10-31T03:18:58;11.60;99.90
46508;DHT22;32223;53.654;10.014;2023-10-31T03:21:24;11.60;99.90
46508;DHT22;32223;53.654;10.014;2023-10-31T03:23:50;11.60;99.90
46508;DHT22;32223;53.654;10.014;2023-10-31T03:26:19;11.60;99.90
46508;DHT22;32223;53.654;10.014;2023-10-31T03:28:46;11.60;99.90
46508;DHT22;32223;53.654;10.014;2023-10-31T03:31:12;11.60;99.90
46508;DHT22;32223;53.654;10.014;2023-10-31T03:33:38;11.60;99.90
46508;DHT22;32223;53.654;10.014;2023-10-31T03:36:04;11.60;99.90
46508;DHT22;32223;53.654;10.014;2023-10-31T03:38:31;11.60;99.90
46508;DHT22;32223;53.654;10.014;2023-10-31T03:40:57;11.60;99.90
46508;DHT22;32223;53.654;10.014;2023-10-31T03:43:23;11.60;99.90
46508;DHT22;32223;53.654;10.014;2023-10-31T03:45:48;11.60;99.90
46508;DHT22;32223;53.654;10.014;2023-10-31T03:48:15;11.60;99.90
46508;DHT22;32223;53.654;10.014;2023-10-31T03:50:41;11.60;99.90
46508;DHT22;32223;53.654;10.014;2023-10-31T03:53:07;11.60;99.90
46508;DHT22;32223;53.654;10.014;2023-10-31T03:55:32;11.60;99.90
46508;DHT22;32223;53.654;10.014;2023-10-31T03:58:00;11.60;99.90
46508;DHT22;32223;53.654;10.014;2023-10-31T04:00:25;11.60;99.90
46508;DHT22;32223;53.654;10.014;2023-10-31T04:02:51;11.70;99.90
46508;DHT22;32223;53.654;10.014;2023-10-31T04:05:16;11.70;99.90
46508;DHT22;32223;53.654;10.014;2023-10-31T04:07:43;11.70;99.90
46508;DHT22;32223;53.654;10.014;2023-10-31T04:10:09;11.70;99.90
46508;DHT22;32223;53.654;10.014;2023-10-31T04:12:34;11.70;99.90
46508;DHT22;32223;53.654;10.014;2023-10-31T04:15:00;11.70;99.90
46508;DHT22;32223;53.654;10.014;2023-10-31T04:17:26;11.60;99.90
46508;DHT22;32223;53.654;10.014;2023-10-31T04:19:52;11.70;99.90
46508;DHT22;32223;53.654;10.014;2023-10-31T04:22:17;11.70;99.90
46508;DHT22;32223;53.654;10.014;2023-10-31T04:24:43;11.70;99.90
46508;DHT22;32223;53.654;10.014;2023-10-31T04:27:09;11.70;99.90
46508;DHT22;32223;53.654;10.014;2023-10-31T04:29:34;11.70;99.90
46508;DHT22;32223;53.654;10.014;2023-10-31T04:32:00;11.70;99.90
46508;DHT22;32223;53.654;10.014;2023-10-31T04:34:25;11.70;99.90
46508;DHT22;32223;53.654;10.014;2023-10-31T04:36:51;11.70;99.90
46508;DHT22;32223;53.654;10.014;2023-10-31T04:39:17;11.80;99.90
46508;DHT22;32223;53.654;10.014;2023-10-31T04:41:43;11.80;99.90
46508;DHT22;32223;53.654;10.014;2023-10-31T04:44:08;11.80;99.90
46508;DHT22;32223;53.654;10.014;2023-10-31T04:46:34;11.80;99.90
46508;DHT22;32223;53.654;10.014;2023-10-31T04:48:59;11.80;99.90
46508;DHT22;32223;53.654;10.014;2023-10-31T04:51:25;11.80;99.90
46508;DHT22;32223;53.654;10.014;2023-10-31T04:53:51;11.80;99.90
46508;DHT22;32223;53.654;10.014;2023-10-31T04:56:18;11.80;99.90
46508;DHT22;32223;53.654;10.014;2023-10-31T04:58:44;11.80;99.90
46508;DHT22;32223;53.654;10.014;2023-10-31T05:01:11;11.90;99.90
46508;DHT22;32223;53.654;10.014;2023-10-31T05:03:37;11.90;99.90
46508;DHT22;32223;53.654;10.014;2023-10-31T05:06:03;11.80;99.90
46508;DHT22;32223;53.654;10.014;2023-10-31T05:08:29;11.90;99.90
46508;DHT22;32223;53.654;10.014;2023-10-31T05:10:57;11.90;99.90
46508;DHT22;32223;53.654;10.014;2023-10-31T05:13:23;11.90;99.90
46508;DHT22;32223;53.654;10.014;2023-10-31T05:15:49;11.90;99.90
46508;DHT22;32223;53.654;10.014;2023-10-31T05:18:14;11.90;99.90
46508;DHT22;32223;53.654;10.014;2023-10-31T05:20:40;11.90;99.90
46508;DHT22;32223;53.654;10.014;2023-10-31T05:23:06;11.90;99.90
46508;DHT22;32223;53.654;10.014;2023-10-31T05:25:32;11.90;99.90
46508;DHT22;32223;53.654;10.014;2023-10-31T05:27:58;11.90;99.90
46508;DHT22;32223;53.654;10.014;2023-10-31T05:30:24;11.90;99.90
46508;DHT22;32223;53.654;10.014;2023-10-31T05:32:51;11.90;99.90
46508;DHT22;32223;53.654;10.014;2023-10-31T05:35:16;12.00;99.90
46508;DHT22;32223;53.654;10.014;2023-10-31T05:37:42;11.90;99.90
46508;DHT22;32223;53.654;10.014;2023-10-31T05:40:08;11.90;99.90
46508;DHT22;32223;53.654;10.014;2023-10-31T05:42:34;11.90;99.90
46508;DHT22;32223;53.654;10.014;2023-10-31T05:44:59;11.90;99.90
46508;DHT22;32223;53.654;10.014;2023-10-31T05:47:25;11.90;99.90
46508;DHT22;32223;53.654;10.014;2023-10-31T05:49:51;12.00;99.90
46508;DHT22;32223;53.654;10.014;2023-10-31T05:52:17;11.90;99.90
46508;DHT22;32223;53.654;10.014;2023-10-31T05:54:42;11.90;99.90
46508;DHT22;32223;53.654;10.014;2023-10-31T05:57:08;11.90;99.90
46508;DHT22;32223;53.654;10.014;2023-10-31T05:59:33;11.90;99.90
46508;DHT22;32223;53.654;10.014;2023-10-31T06:01:59;11.90;99.90
46508;DHT22;32223;53.654;10.014;2023-10-31T06:04:25;11.90;99.90
46508;DHT22;32223;53.654;10.014;2023-10-31T06:06:51;11.90;99.90
46508;DHT22;32223;53.654;10.014;2023-10-31T06:09:16;12.00;99.90
46508;DHT22;32223;53.654;10.014;2023-10-31T06:11:42;11.90;99.90
46508;DHT22;32223;53.654;10.014;2023-10-31T06:14:10;11.90;99.90
46508;DHT22;32223;53.654;10.014;2023-10-31T06:16:43;11.90;99.90
46508;DHT22;32223;53.654;10.014;2023-10-31T06:19:09;12.00;99.90
46508;DHT22;32223;53.654;10.014;2023-10-31T06:21:35;12.00;99.90
46508;DHT22;32223;53.654;10.014;2023-10-31T06:24:04;11.90;99.90
46508;DHT22;32223;53.654;10.014;2023-10-31T06:26:30;11.90;99.90
46508;DHT22;32223;53.654;10.014;2023-10-31T06:28:56;12.00;99.90
46508;DHT22;32223;53.654;10.014;2023-10-31T06:31:21;11.90;99.90
46508;DHT22;32223;53.654;10.014;2023-10-31T06:33:47;11.90;99.90
46508;DHT22;32223;53.654;10.014;2023-10-31T06:36:13;11.90;99.90
46508;DHT22;32223;53.654;10.014;2023-10-31T06:38:38;11.90;99.90
46508;DHT22;32223;53.654;10.014;2023-10-31T06:41:04;11.90;99.90
46508;DHT22;32223;53.654;10.014;2023-10-31T06:43:30;11.90;99.90
46508;DHT22;32223;53.654;10.014;2023-10-31T06:45:55;12.00;99.90
46508;DHT22;32223;53.654;10.014;2023-10-31T06:48:22;12.00;99.90
46508;DHT22;32223;53.654;10.014;2023-10-31T06:50:47;12.00;99.90
46508;DHT22;32223;53.654;10.014;2023-10-31T06:53:13;12.10;99.90
46508;DHT22;32223;53.654;10.014;2023-10-31T06:55:39;12.10;99.90
46508;DHT22;32223;53.654;10.014;2023-10-31T06:58:04;12.10;99.90
46508;DHT22;32223;53.654;10.014;2023-10-31T07:00:30;12.00;99.90
46508;DHT22;32223;53.654;10.014;2023-10-31T07:02:56;12.10;99.90
46508;DHT22;32223;53.654;10.014;2023-10-31T07:05:24;12.10;99.90
46508;DHT22;32223;53.654;10.014;2023-10-31T07:07:50;12.10;99.90
46508;DHT22;32223;53.654;10.014;2023-10-31T07:10:15;12.10;99.90
46508;DHT22;32223;53.654;10.014;2023-10-31T07:12:41;12.10;99.90
46508;DHT22;32223;53.654;10.014;2023-10-31T07:15:07;12.10;99.90
46508;DHT22;32223;53.654;10.014;2023-10-31T07:17:33;12.10;99.90
46508;DHT22;32223;53.654;10.014;2023-10-31T07:19:58;12.10;99.90
46508;DHT22;32223;53.654;10.014;2023-10-31T07:22:24;12.20;99.90
46508;DHT22;32223;53.654;10.014;2023-10-31T07:24:52;12.10;99.90
46508;DHT22;32223;53.654;10.014;2023-10-31T07:27:18;12.10;99.90
46508;DHT22;32223;53.654;10.014;2023-10-31T07:29:44;12.10;99.90
46508;DHT22;32223;53.654;10.014;2023-10-31T07:32:11;12.10;99.90
46508;DHT22;32223;53.654;10.014;2023-10-31T07:34:40;12.10;99.90
46508;DHT22;32223;53.654;10.014;2023-10-31T07:37:06;12.10;99.90
46508;DHT22;32223;53.654;10.014;2023-10-31T07:39:32;12.10;99.90
46508;DHT22;32223;53.654;10.014;2023-10-31T07:41:58;12.10;99.90
46508;DHT22;32223;53.654;10.014;2023-10-31T07:44:23;12.10;99.90
46508;DHT22;32223;53.654;10.014;2023-10-31T07:46:49;12.10;99.90
46508;DHT22;32223;53.654;10.014;2023-10-31T07:49:14;12.10;99.90
46508;DHT22;32223;53.654;10.014;2023-10-31T07:51:40;12.10;99.90
46508;DHT22;32223;53.654;10.014;2023-10-31T07:54:06;12.20;99.90
46508;DHT22;32223;53.654;10.014;2023-10-31T07:56:31;12.20;99.90
46508;DHT22;32223;53.654;10.014;2023-10-31T07:58:58;12.10;99.90
46508;DHT22;32223;53.654;10.014;2023-10-31T08:01:23;12.10;99.90
46508;DHT22;32223;53.654;10.014;2023-10-31T08:03:49;12.10;99.90
46508;DHT22;32223;53.654;10.014;2023-10-31T08:06:15;12.00;99.90
46508;DHT22;32223;53.654;10.014;2023-10-31T08:08:40;11.90;99.90
46508;DHT22;32223;53.654;10.014;2023-10-31T08:11:10;11.90;99.90
46508;DHT22;32223;53.654;10.014;2023-10-31T08:13:39;11.80;99.90
46508;DHT22;32223;53.654;10.014;2023-10-31T08:16:06;11.70;99.90
46508;DHT22;32223;53.654;10.014;2023-10-31T08:18:32;11.50;99.90
46508;DHT22;32223;53.654;10.014;2023-10-31T08:20:57;11.50;99.90
46508;DHT22;32223;53.654;10.014;2023-10-31T08:23:23;11.40;99.90
46508;DHT22;32223;53.654;10.014;2023-10-31T08:25:49;11.40;99.90
46508;DHT22;32223;53.654;10.014;2023-10-31T08:28:16;11.40;99.90
46508;DHT22;32223;53.654;10.014;2023-10-31T08:30:41;11.30;99.90
46508;DHT22;32223;53.654;10.014;2023-10-31T08:33:07;11.20;99.90
46508;DHT22;32223;53.654;10.014;2023-10-31T08:35:33;11.20;99.90
46508;DHT22;32223;53.654;10.014;2023-10-31T08:37:58;11.10;99.90
46508;DHT22;32223;53.654;10.014;2023-10-31T08:40:25;11.10;99.90
46508;DHT22;32223;53.654;10.014;2023-10-31T08:42:51;11.00;99.90
46508;DHT22;32223;53.654;10.014;2023-10-31T08:45:16;11.00;99.90
46508;DHT22;32223;53.654;10.014;2023-10-31T08:47:42;11.00;99.90
46508;DHT22;32223;53.654;10.014;2023-10-31T08:50:08;10.90;99.90
46508;DHT22;32223;53.654;10.014;2023-10-31T08:52:37;10.90;99.90
46508;DHT22;32223;53.654;10.014;2023-10-31T08:55:03;10.80;99.90
46508;DHT22;32223;53.654;10.014;2023-10-31T08:57:29;10.90;99.90
46508;DHT22;32223;53.654;10.014;2023-10-31T08:59:55;10.90;99.90
46508;DHT22;32223;53.654;10.014;2023-10-31T09:02:21;10.90;99.90
46508;DHT22;32223;53.654;10.014;2023-10-31T09:04:46;11.00;99.90
46508;DHT22;32223;53.654;10.014;2023-10-31T09:07:12;11.00;99.90
46508;DHT22;32223;53.654;10.014;2023-10-31T09:09:37;11.00;99.90
46508;DHT22;32223;53.654;10.014;2023-10-31T09:12:03;11.00;99.90
46508;DHT22;32223;53.654;10.014;2023-10-31T09:14:29;11.00;99.90
46508;DHT22;32223;53.654;10.014;2023-10-31T09:16:55;11.00;99.90
46508;DHT22;32223;53.654;10.014;2023-10-31T09:19:20;11.10;99.90
46508;DHT22;32223;53.654;10.014;2023-10-31T09:21:46;11.10;99.90
46508;DHT22;32223;53.654;10.014;2023-10-31T09:24:11;11.10;99.90
46508;DHT22;32223;53.654;10.014;2023-10-31T09:26:41;11.00;99.90
46508;DHT22;32223;53.654;10.014;2023-10-31T09:29:07;11.00;99.90
46508;DHT22;32223;53.654;10.014;2023-10-31T09:31:32;11.00;99.90
46508;DHT22;32223;53.654;10.014;2023-10-31T09:33:58;11.00;99.90
46508;DHT22;32223;53.654;10.014;2023-10-31T09:36:23;11.00;99.90
46508;DHT22;32223;53.654;10.014;2023-10-31T09:38:49;11.10;99.90
46508;DHT22;32223;53.654;10.014;2023-10-31T09:41:14;11.20;99.90
46508;DHT22;32223;53.654;10.014;2023-10-31T09:43:40;11.20;99.90
46508;DHT22;32223;53.654;10.014;2023-10-31T09:46:07;11.10;99.90
46508;DHT22;32223;53.654;10.014;2023-10-31T09:48:35;11.10;99.90
46508;DHT22;32223;53.654;10.014;2023-10-31T09:51:02;11.00;99.90
46508;DHT22;32223;53.654;10.014;2023-10-31T09:53:29;10.90;99.90
46508;DHT22;32223;53.654;10.014;2023-10-31T09:55:56;10.80;99.90
46508;DHT22;32223;53.654;10.014;2023-10-31T09:58:22;10.80;99.90
46508;DHT22;32223;53.654;10.014;2023-10-31T10:00:48;10.60;99.90
46508;DHT22;32223;53.654;10.014;2023-10-31T10:03:15;10.50;99.90
46508;DHT22;32223;53.654;10.014;2023-10-31T10:05:44;10.50;99.90
46508;DHT22;32223;53.654;10.014;2023-10-31T10:08:10;10.40;99.90
46508;DHT22;32223;53.654;10.014;2023-10-31T10:10:36;10.30;99.90
46508;DHT22;32223;53.654;10.014;2023-10-31T10:13:03;10.20;99.90
46508;DHT22;32223;53.654;10.014;2023-10-31T10:15:29;10.20;99.90
46508;DHT22;32223;53.654;10.014;2023-10-31T10:17:55;10.20;99.90
46508;DHT22;32223;53.654;10.014;2023-10-31T10:20:22;10.20;99.90
46508;DHT22;32223;53.654;10.014;2023-10-31T10:22:47;10.20;99.90
46508;DHT22;32223;53.654;10.014;2023-10-31T10:25:16;10.20;99.90
46508;DHT22;32223;53.654;10.014;2023-10-31T10:27:43;10.20;99.90
46508;DHT22;32223;53.654;10.014;2023-10-31T10:30:09;10.20;99.90
46508;DHT22;32223;53.654;10.014;2023-10-31T10:32:35;10.20;99.90
46508;DHT22;32223;53.654;10.014;2023-10-31T10:35:01;10.20;99.90
46508;DHT22;32223;53.654;10.014;2023-10-31T10:37:27;10.30;99.90
46508;DHT22;32223;53.654;10.014;2023-10-31T10:39:53;10.20;99.90
46508;DHT22;32223;53.654;10.014;2023-10-31T10:42:31;10.20;99.90
46508;DHT22;32223;53.654;10.014;2023-10-31T10:45:02;10.30;99.90
46508;DHT22;32223;53.654;10.014;2023-10-31T10:47:32;10.30;99.90
46508;DHT22;32223;53.654;10.014;2023-10-31T10:50:00;10.40;99.90
46508;DHT22;32223;53.654;10.014;2023-10-31T10:55:27;10.40;99.90
46508;DHT22;32223;53.654;10.014;2023-10-31T10:58:05;10.40;99.90
46508;DHT22;32223;53.654;10.014;2023-10-31T11:00:31;10.40;99.90
46508;DHT22;32223;53.654;10.014;2023-10-31T11:02:57;10.40;99.90
46508;DHT22;32223;53.654;10.014;2023-10-31T11:05:24;10.40;99.90
46508;DHT22;32223;53.654;10.014;2023-10-31T11:07:51;10.40;99.90
46508;DHT22;32223;53.654;10.014;2023-10-31T11:10:18;10.40;99.90
46508;DHT22;32223;53.654;10.014;2023-10-31T11:12:44;10.30;99.90
46508;DHT22;32223;53.654;10.014;2023-10-31T11:15:13;10.30;99.90
46508;DHT22;32223;53.654;10.014;2023-10-31T11:17:42;10.30;99.90
46508;DHT22;32223;53.654;10.014;2023-10-31T11:20:15;10.20;99.90
46508;DHT22;32223;53.654;10.014;2023-10-31T11:22:45;10.20;99.90
46508;DHT22;32223;53.654;10.014;2023-10-31T11:25:21;10.30;99.90
46508;DHT22;32223;53.654;10.014;2023-10-31T11:27:50;10.20;99.90
46508;DHT22;32223;53.654;10.014;2023-10-31T11:33:00;10.10;99.90
46508;DHT22;32223;53.654;10.014;2023-10-31T11:35:29;10.10;99.90
46508;DHT22;32223;53.654;10.014;2023-10-31T11:38:06;10.10;99.90
46508;DHT22;32223;53.654;10.014;2023-10-31T11:40:32;10.10;99.90
46508;DHT22;32223;53.654;10.014;2023-10-31T11:43:02;10.10;99.90
46508;DHT22;32223;53.654;10.014;2023-10-31T11:45:42;10.10;99.90
46508;DHT22;32223;53.654;10.014;2023-10-31T11:48:09;10.20;99.90
46508;DHT22;32223;53.654;10.014;2023-10-31T11:50:37;10.30;99.90
46508;DHT22;32223;53.654;10.014;2023-10-31T11:53:13;10.20;99.90
46508;DHT22;32223;53.654;10.014;2023-10-31T11:55:48;10.30;99.90
46508;DHT22;32223;53.654;10.014;2023-10-31T12:00:44;10.30;99.90
46508;DHT22;32223;53.654;10.014;2023-10-31T12:03:10;10.30;99.90
46508;DHT22;32223;53.654;10.014;2023-10-31T12:05:36;10.50;99.90
46508;DHT22;32223;53.654;10.014;2023-10-31T12:08:02;10.60;99.90
46508;DHT22;32223;53.654;10.014;2023-10-31T12:10:29;10.80;99.90
46508;DHT22;32223;53.654;10.014;2023-10-31T12:12:58;11.20;99.90
46508;DHT22;32223;53.654;10.014;2023-10-31T12:15:25;11.50;99.90
46508;DHT22;32223;53.654;10.014;2023-10-31T12:17:50;12.10;99.90
46508;DHT22;32223;53.654;10.014;2023-10-31T12:20:16;12.80;99.90
46508;DHT22;32223;53.654;10.014;2023-10-31T12:22:42;13.00;99.90
46508;DHT22;32223;53.654;10.014;2023-10-31T12:25:09;13.20;99.90
46508;DHT22;32223;53.654;10.014;2023-10-31T12:27:48;13.60;99.90
46508;DHT22;32223;53.654;10.014;2023-10-31T12:30:17;14.10;99.90
46508;DHT22;32223;53.654;10.014;2023-10-31T12:32:44;14.60;99.90
46508;DHT22;32223;53.654;10.014;2023-10-31T12:35:15;14.80;99.90
46508;DHT22;32223;53.654;10.014;2023-10-31T12:37:49;14.40;99.90
46508;DHT22;32223;53.654;10.014;2023-10-31T12:40:17;13.90;99.90
46508;DHT22;32223;53.654;10.014;2023-10-31T12:42:47;13.40;99.90
46508;DHT22;32223;53.654;10.014;2023-10-31T12:45:13;13.00;99.90
46508;DHT22;32223;53.654;10.014;2023-10-31T12:47:39;12.70;99.90
46508;DHT22;32223;53.654;10.014;2023-10-31T12:50:06;12.40;99.90
46508;DHT22;32223;53.654;10.014;2023-10-31T12:52:53;12.20;99.90
46508;DHT22;32223;53.654;10.014;2023-10-31T12:55:23;11.90;99.90
46508;DHT22;32223;53.654;10.014;2023-10-31T12:57:50;11.80;99.90
46508;DHT22;32223;53.654;10.014;2023-10-31T13:00:18;11.80;99.90
46508;DHT22;32223;53.654;10.014;2023-10-31T13:03:07;11.80;99.90
46508;DHT22;32223;53.654;10.014;2023-10-31T13:05:38;11.70;99.90
46508;DHT22;32223;53.654;10.014;2023-10-31T13:08:14;11.70;99.90
46508;DHT22;32223;53.654;10.014;2023-10-31T13:10:40;11.80;99.90
46508;DHT22;32223;53.654;10.014;2023-10-31T13:13:06;11.80;99.90
46508;DHT22;32223;53.654;10.014;2023-10-31T13:15:32;11.80;99.90
46508;DHT22;32223;53.654;10.014;2023-10-31T13:17:58;11.60;99.90
46508;DHT22;32223;53.654;10.014;2023-10-31T13:20:24;11.50;99.90
46508;DHT22;32223;53.654;10.014;2023-10-31T13:22:49;11.60;99.90
46508;DHT22;32223;53.654;10.014;2023-10-31T13:25:16;11.50;99.90
46508;DHT22;32223;53.654;10.014;2023-10-31T13:27:43;11.50;99.90
46508;DHT22;32223;53.654;10.014;2023-10-31T13:30:10;11.40;99.90
46508;DHT22;32223;53.654;10.014;2023-10-31T13:32:37;11.30;99.90
46508;DHT22;32223;53.654;10.014;2023-10-31T13:35:04;11.20;99.90
46508;DHT22;32223;53.654;10.014;2023-10-31T13:37:29;11.00;99.90
46508;DHT22;32223;53.654;10.014;2023-10-31T13:39:55;10.90;99.90
46508;DHT22;32223;53.654;10.014;2023-10-31T13:42:21;10.80;99.90
46508;DHT22;32223;53.654;10.014;2023-10-31T13:44:47;10.70;99.90
46508;DHT22;32223;53.654;10.014;2023-10-31T13:47:13;10.50;99.90
46508;DHT22;32223;53.654;10.014;2023-10-31T13:49:39;10.50;99.90
46508;DHT22;32223;53.654;10.014;2023-10-31T13:52:05;10.40;99.90
46508;DHT22;32223;53.654;10.014;2023-10-31T13:54:32;10.30;99.90
46508;DHT22;32223;53.654;10.014;2023-10-31T13:56:58;10.20;99.90
46508;DHT22;32223;53.654;10.014;2023-10-31T13:59:24;10.00;99.90
46508;DHT22;32223;53.654;10.014;2023-10-31T14:01:50;9.90;99.90
46508;DHT22;32223;53.654;10.014;2023-10-31T14:04:15;9.70;99.90
46508;DHT22;32223;53.654;10.014;2023-10-31T14:06:42;9.60;99.90
46508;DHT22;32223;53.654;10.014;2023-10-31T14:09:09;9.50;99.90
46508;DHT22;32223;53.654;10.014;2023-10-31T14:11:35;9.30;99.90
46508;DHT22;32223;53.654;10.014;2023-10-31T14:14:02;9.20;99.90
46508;DHT22;32223;53.654;10.014;2023-10-31T14:16:36;9.10;99.90
46508;DHT22;32223;53.654;10.014;2023-10-31T14:19:02;9.10;99.90
46508;DHT22;32223;53.654;10.014;2023-10-31T14:21:29;9.00;99.90
46508;DHT22;32223;53.654;10.014;2023-10-31T14:23:54;8.90;99.90
46508;DHT22;32223;53.654;10.014;2023-10-31T14:26:23;8.90;99.90
46508;DHT22;32223;53.654;10.014;2023-10-31T14:28:51;8.80;99.90
46508;DHT22;32223;53.654;10.014;2023-10-31T14:31:17;8.60;99.90
46508;DHT22;32223;53.654;10.014;2023-10-31T14:33:42;8.60;99.90
46508;DHT22;32223;53.654;10.014;2023-10-31T14:36:09;8.30;99.90
46508;DHT22;32223;53.654;10.014;2023-10-31T14:38:37;8.20;99.90
46508;DHT22;32223;53.654;10.014;2023-10-31T14:41:03;8.20;99.90
46508;DHT22;32223;53.654;10.014;2023-10-31T14:43:29;8.20;99.90
46508;DHT22;32223;53.654;10.014;2023-10-31T14:46:01;8.10;99.90
46508;DHT22;32223;53.654;10.014;2023-10-31T14:48:27;8.10;99.90
46508;DHT22;32223;53.654;10.014;2023-10-31T14:50:53;8.00;99.90
46508;DHT22;32223;53.654;10.014;2023-10-31T14:53:18;8.00;99.90
46508;DHT22;32223;53.654;10.014;2023-10-31T14:55:47;8.00;99.90
46508;DHT22;32223;53.654;10.014;2023-10-31T14:58:14;7.90;99.90
46508;DHT22;32223;53.654;10.014;2023-10-31T15:00:39;7.80;99.90
46508;DHT22;32223;53.654;10.014;2023-10-31T15:03:05;7.80;99.90
46508;DHT22;32223;53.654;10.014;2023-10-31T15:05:31;7.80;99.90
46508;DHT22;32223;53.654;10.014;2023-10-31T15:07:58;7.70;99.90
46508;DHT22;32223;53.654;10.014;2023-10-31T15:10:24;7.60;99.90
46508;DHT22;32223;53.654;10.014;2023-10-31T15:12:51;7.60;99.90
46508;DHT22;32223;53.654;10.014;2023-10-31T15:15:17;7.60;99.90
46508;DHT22;32223;53.654;10.014;2023-10-31T15:17:43;7.50;99.90
46508;DHT22;32223;53.654;10.014;2023-10-31T15:20:09;7.50;99.90
46508;DHT22;32223;53.654;10.014;2023-10-31T15:22:39;7.40;99.90